createdAt,value
2018-02-15T00:02:20.715Z,90.90
2018-02-15T00:04:48.464Z,90.80
2018-02-15T00:07:16.044Z,90.70
2018-02-15T00:09:43.655Z,90.40
2018-02-15T00:12:11.269Z,90.50
2018-02-15T00:14:39.642Z,90.60
2018-02-15T00:17:07.802Z,90.60
2018-02-15T00:19:35.414Z,90.80
2018-02-15T00:22:03.047Z,90.80
2018-02-15T00:24:31.382Z,91.00
2018-02-15T00:26:58.989Z,91.00
2018-02-15T00:29:27.190Z,90.70
2018-02-15T00:31:55.347Z,90.70
2018-02-15T00:34:22.906Z,90.80
2018-02-15T00:36:50.474Z,90.70
2018-02-15T00:39:18.061Z,90.70
2018-02-15T00:41:45.645Z,90.70
2018-02-15T00:44:13.233Z,90.60
2018-02-15T00:46:41.129Z,90.60
2018-02-15T00:49:09.481Z,90.70
2018-02-15T00:51:37.040Z,90.70
2018-02-15T00:54:04.629Z,90.80
2018-02-15T00:56:32.234Z,90.80
2018-02-15T00:59:00.697Z,90.80
2018-02-15T01:01:29.026Z,90.70
2018-02-15T01:03:56.601Z,90.70
2018-02-15T01:06:24.190Z,90.70
2018-02-15T01:08:53.180Z,90.60
2018-02-15T01:11:20.816Z,90.80
2018-02-15T01:13:50.011Z,91.00
2018-02-15T01:16:17.614Z,90.90
2018-02-15T01:18:46.015Z,91.10
2018-02-15T01:21:14.386Z,91.00
2018-02-15T01:23:42.718Z,91.50
2018-02-15T01:26:10.290Z,91.50
2018-02-15T01:28:38.899Z,91.60
2018-02-15T01:31:06.907Z,91.50
2018-02-15T01:33:34.468Z,91.50
2018-02-15T01:36:02.078Z,91.40
2018-02-15T01:38:29.642Z,91.30
2018-02-15T01:40:57.253Z,91.30
2018-02-15T01:43:24.830Z,91.30
2018-02-15T01:45:52.545Z,91.20
2018-02-15T01:48:20.187Z,91.10
2018-02-15T01:50:47.750Z,91.30
2018-02-15T01:53:15.345Z,91.30
2018-02-15T01:55:42.987Z,91.10
2018-02-15T01:58:10.790Z,91.20
2018-02-15T02:00:39.905Z,91.00
2018-02-15T02:03:08.113Z,90.90
2018-02-15T02:05:35.706Z,90.90
2018-02-15T02:08:03.299Z,91.00
2018-02-15T02:10:30.858Z,91.10
2018-02-15T02:12:59.201Z,90.80
2018-02-15T02:15:27.217Z,90.80
2018-02-15T02:17:56.369Z,90.70
2018-02-15T02:20:24.151Z,90.70
2018-02-15T02:22:51.719Z,90.60
2018-02-15T02:25:19.286Z,90.60
2018-02-15T02:27:46.887Z,90.50
2018-02-15T02:30:14.442Z,90.60
2018-02-15T02:32:43.314Z,90.50
2018-02-15T02:35:11.757Z,90.80
2018-02-15T02:37:39.350Z,90.50
2018-02-15T02:40:06.938Z,90.50
2018-02-15T02:42:35.313Z,90.50
2018-02-15T02:45:02.923Z,90.50
2018-02-15T02:47:30.497Z,90.50
2018-02-15T02:49:58.384Z,90.40
2018-02-15T02:52:25.942Z,90.20
2018-02-15T02:54:53.501Z,90.20
2018-02-15T02:57:22.008Z,90.20
2018-02-15T02:59:50.384Z,90.30
2018-02-15T03:02:17.962Z,90.30
2018-02-15T03:04:46.360Z,90.30
2018-02-15T03:07:13.920Z,90.20
2018-02-15T03:09:41.545Z,90.20
2018-02-15T03:12:09.519Z,90.40
2018-02-15T03:14:37.841Z,90.20
2018-02-15T03:17:05.769Z,90.20
2018-02-15T03:19:34.115Z,90.20
2018-02-15T03:22:01.701Z,90.30
2018-02-15T03:24:29.296Z,90.30
2018-02-15T03:26:56.865Z,90.10
2018-02-15T03:29:25.206Z,90.10
2018-02-15T03:31:52.778Z,90.10
2018-02-15T03:34:20.409Z,90.00
2018-02-15T03:36:48.718Z,90.10
2018-02-15T03:39:16.278Z,90.00
2018-02-15T03:41:44.850Z,90.00
2018-02-15T03:44:13.129Z,90.00
2018-02-15T03:46:40.707Z,90.00
2018-02-15T03:49:08.270Z,89.70
2018-02-15T03:51:36.629Z,89.40
2018-02-15T03:54:04.185Z,89.40
2018-02-15T03:56:31.775Z,90.30
2018-02-15T03:58:59.761Z,90.50
2018-02-15T04:01:28.111Z,90.10
2018-02-15T04:03:56.498Z,90.00
2018-02-15T04:06:24.070Z,90.20
2018-02-15T04:08:51.673Z,90.00
2018-02-15T04:11:20.056Z,89.10
2018-02-15T04:13:48.389Z,89.40
2018-02-15T04:16:15.966Z,89.40
2018-02-15T04:18:43.791Z,89.40
2018-02-15T04:21:11.363Z,89.50
2018-02-15T04:23:39.174Z,89.40
2018-02-15T04:26:08.272Z,88.10
2018-02-15T04:28:36.441Z,88.10
2018-02-15T04:31:04.012Z,87.60
2018-02-15T04:33:32.876Z,87.30
2018-02-15T04:36:00.459Z,86.90
2018-02-15T04:38:28.094Z,86.80
2018-02-15T04:40:56.090Z,87.00
2018-02-15T04:43:23.674Z,86.90
2018-02-15T04:45:52.122Z,87.40
2018-02-15T04:48:19.736Z,87.40
2018-02-15T04:50:48.090Z,87.90
2018-02-15T04:53:15.713Z,87.80
2018-02-15T04:55:43.277Z,87.60
2018-02-15T04:58:11.308Z,87.00
2018-02-15T05:00:39.704Z,85.60
2018-02-15T05:03:07.640Z,85.60
2018-02-15T05:05:35.218Z,85.80
2018-02-15T05:08:03.553Z,85.90
2018-02-15T05:10:32.692Z,86.50
2018-02-15T05:13:01.025Z,85.80
2018-02-15T05:15:28.718Z,85.70
2018-02-15T05:17:56.882Z,85.60
2018-02-15T05:20:25.115Z,85.40
2018-02-15T05:22:52.706Z,84.80
2018-02-15T05:25:20.311Z,84.50
2018-02-15T05:27:47.893Z,84.20
2018-02-15T05:30:15.492Z,83.90
2018-02-15T05:32:43.092Z,83.80
2018-02-15T05:35:10.653Z,83.80
2018-02-15T05:37:38.245Z,83.70
2018-02-15T05:40:06.577Z,83.50
2018-02-15T05:42:34.152Z,83.50
2018-02-15T05:45:01.726Z,83.20
2018-02-15T05:47:29.318Z,83.50
2018-02-15T05:49:57.646Z,83.50
2018-02-15T05:52:25.402Z,83.50
2018-02-15T05:54:53.081Z,83.50
2018-02-15T05:57:20.646Z,83.50
2018-02-15T05:59:48.249Z,83.90
2018-02-15T06:02:16.929Z,84.50
2018-02-15T06:04:45.977Z,85.00
2018-02-15T06:07:13.531Z,84.70
2018-02-15T06:09:41.126Z,85.10
2018-02-15T06:12:08.717Z,85.60
2018-02-15T06:14:37.596Z,85.90
2018-02-15T06:17:05.198Z,85.90
2018-02-15T06:19:32.754Z,85.90
2018-02-15T06:22:00.314Z,86.10
2018-02-15T06:24:29.259Z,86.10
2018-02-15T06:26:57.593Z,87.00
2018-02-15T06:29:25.153Z,87.00
2018-02-15T06:31:52.743Z,87.20
2018-02-15T06:34:21.159Z,87.40
2018-02-15T06:36:49.511Z,88.40
2018-02-15T06:39:17.086Z,88.30
2018-02-15T06:41:44.720Z,88.10
2018-02-15T06:44:12.841Z,88.90
2018-02-15T06:46:40.409Z,89.20
2018-02-15T06:49:08.028Z,89.30
2018-02-15T06:51:36.322Z,89.30
2018-02-15T06:54:03.917Z,89.80
2018-02-15T06:56:31.903Z,90.20
2018-02-15T06:58:59.462Z,90.20
2018-02-15T07:01:27.897Z,90.30
2018-02-15T07:03:55.602Z,90.30
2018-02-15T07:06:23.253Z,90.30
2018-02-15T07:08:50.859Z,90.30
2018-02-15T07:11:18.487Z,90.20
2018-02-15T07:13:49.146Z,90.30
2018-02-15T07:16:18.262Z,90.60
2018-02-15T07:18:47.869Z,90.50
2018-02-15T07:21:18.102Z,90.40
2018-02-15T07:23:45.831Z,90.30
2018-02-15T07:26:13.531Z,90.20
2018-02-15T07:28:41.282Z,90.30
2018-02-15T07:31:09.729Z,90.30
2018-02-15T07:33:38.348Z,90.40
2018-02-15T07:36:07.030Z,90.40
2018-02-15T07:38:34.816Z,90.40
2018-02-15T07:41:02.881Z,90.30
2018-02-15T07:43:31.469Z,89.20
2018-02-15T07:45:59.873Z,88.50
2018-02-15T07:48:27.506Z,88.50
2018-02-15T07:50:55.902Z,86.60
2018-02-15T07:53:23.503Z,86.60
2018-02-15T07:55:51.204Z,85.90
2018-02-15T07:58:18.934Z,85.70
2018-02-15T08:00:46.824Z,85.40
2018-02-15T08:03:15.528Z,85.40
2018-02-15T08:05:43.152Z,85.20
2018-02-15T08:08:10.816Z,85.30
2018-02-15T08:10:38.370Z,85.50
2018-02-15T08:13:06.172Z,85.10
2018-02-15T08:15:35.485Z,84.20
2018-02-15T08:18:03.048Z,84.10
2018-02-15T08:20:31.078Z,83.70
2018-02-15T08:22:58.965Z,83.70
2018-02-15T08:25:26.686Z,83.80
2018-02-15T08:27:55.817Z,83.70
2018-02-15T08:30:23.383Z,83.70
2018-02-15T08:32:50.945Z,83.60
2018-02-15T08:35:18.538Z,84.10
2018-02-15T08:37:46.123Z,84.30
2018-02-15T08:40:13.739Z,84.40
2018-02-15T08:42:41.309Z,84.10
2018-02-15T08:45:08.881Z,83.90
2018-02-15T08:47:36.478Z,85.40
2018-02-15T08:50:04.808Z,87.50
2018-02-15T08:52:33.346Z,87.50
2018-02-15T08:55:00.949Z,88.20
2018-02-15T08:57:28.533Z,88.30
2018-02-15T08:59:56.095Z,88.00
2018-02-15T09:02:23.686Z,87.50
2018-02-15T09:04:51.246Z,87.40
2018-02-15T09:07:18.834Z,87.70
2018-02-15T09:09:47.203Z,86.40
2018-02-15T09:12:15.273Z,86.40
2018-02-15T09:14:42.874Z,86.20
2018-02-15T09:17:10.431Z,84.60
2018-02-15T09:19:37.988Z,83.20
2018-02-15T09:22:05.610Z,82.70
2018-02-15T09:24:34.023Z,81.80
2018-02-15T09:27:01.695Z,81.10
2018-02-15T09:29:29.294Z,80.20
2018-02-15T09:31:56.945Z,79.10
2018-02-15T09:34:24.520Z,79.00
2018-02-15T09:36:52.577Z,79.10
2018-02-15T09:39:20.426Z,78.20
2018-02-15T09:41:47.998Z,78.40
2018-02-15T09:44:15.553Z,77.90
2018-02-15T09:46:43.130Z,77.80
2018-02-15T09:49:11.630Z,77.00
2018-02-15T09:51:39.191Z,77.20
2018-02-15T09:54:06.752Z,77.70
2018-02-15T09:56:34.760Z,77.80
2018-02-15T09:59:02.320Z,78.30
2018-02-15T10:01:30.666Z,80.40
2018-02-15T10:03:58.257Z,80.40
2018-02-15T10:06:25.856Z,79.40
2018-02-15T10:08:54.185Z,78.40
2018-02-15T10:11:21.973Z,78.40
2018-02-15T10:13:49.530Z,78.00
2018-02-15T10:16:17.088Z,77.40
2018-02-15T10:18:44.672Z,77.20
2018-02-15T10:21:12.525Z,76.90
2018-02-15T10:23:40.094Z,77.20
2018-02-15T10:26:07.662Z,77.00
2018-02-15T10:28:35.627Z,75.50
2018-02-15T10:31:03.252Z,75.80
2018-02-15T10:33:30.842Z,75.70
2018-02-15T10:35:58.722Z,74.90
2018-02-15T10:38:26.307Z,75.50
2018-02-15T10:40:55.071Z,74.40
2018-02-15T10:43:22.654Z,74.40
2018-02-15T10:45:50.239Z,75.20
2018-02-15T10:48:17.829Z,74.10
2018-02-15T10:50:45.571Z,75.20
2018-02-15T10:53:13.124Z,75.40
2018-02-15T10:55:40.794Z,75.10
2018-02-15T10:58:09.378Z,74.10
2018-02-15T11:00:42.578Z,76.00
2018-02-15T11:03:15.823Z,76.50
2018-02-15T11:05:46.888Z,75.60
2018-02-15T11:08:15.253Z,75.60
2018-02-15T11:10:42.845Z,75.40
2018-02-15T11:13:11.254Z,73.10
2018-02-15T11:15:38.957Z,73.00
2018-02-15T11:18:06.988Z,73.70
2018-02-15T11:20:34.641Z,74.80
2018-02-15T11:23:02.197Z,72.90
2018-02-15T11:25:31.411Z,72.40
2018-02-15T11:27:58.986Z,72.40
2018-02-15T11:30:26.563Z,72.90
2018-02-15T11:32:54.166Z,72.00
2018-02-15T11:35:21.757Z,72.20
2018-02-15T11:37:49.530Z,71.60
2018-02-15T11:40:17.107Z,71.50
2018-02-15T11:42:44.709Z,72.20
2018-02-15T11:45:12.462Z,70.40
2018-02-15T11:47:40.108Z,67.40
2018-02-15T11:50:07.719Z,68.70
2018-02-15T11:52:35.383Z,68.30
2018-02-15T11:55:02.994Z,66.70
2018-02-15T11:57:30.578Z,65.50
2018-02-15T11:59:58.284Z,65.20
2018-02-15T12:02:25.851Z,64.50
2018-02-15T12:04:54.236Z,65.10
2018-02-15T12:07:21.848Z,65.00
2018-02-15T12:09:49.460Z,65.40
2018-02-15T12:12:18.260Z,61.20
2018-02-15T12:14:46.654Z,64.90
2018-02-15T12:17:14.247Z,65.00
2018-02-15T12:19:42.643Z,70.80
2018-02-15T12:22:10.255Z,70.30
2018-02-15T12:24:37.987Z,70.80
2018-02-15T12:27:06.042Z,71.20
2018-02-15T12:29:33.703Z,70.80
2018-02-15T12:32:01.446Z,62.80
2018-02-15T12:34:29.860Z,59.90
2018-02-15T12:36:57.539Z,61.40
2018-02-15T12:39:25.560Z,61.10
2018-02-15T12:41:53.191Z,60.30
2018-02-15T12:44:21.593Z,60.80
2018-02-15T12:46:49.975Z,60.20
2018-02-15T12:49:17.602Z,59.40
2018-02-15T12:51:45.220Z,59.10
2018-02-15T12:54:13.072Z,60.40
2018-02-15T12:56:40.646Z,60.30
2018-02-15T12:59:08.224Z,61.10
2018-02-15T13:01:35.860Z,59.90
2018-02-15T13:04:03.428Z,59.00
2018-02-15T13:06:31.254Z,59.10
2018-02-15T13:08:59.353Z,60.40
2018-02-15T13:11:26.959Z,59.70
2018-02-15T13:13:54.875Z,57.40
2018-02-15T13:16:34.185Z,56.90
2018-02-15T13:19:13.602Z,57.30
2018-02-15T13:21:41.214Z,57.60
2018-02-15T13:24:08.996Z,53.80
2018-02-15T13:26:36.624Z,54.90
2018-02-15T13:29:04.417Z,57.60
2018-02-15T13:31:32.809Z,61.80
2018-02-15T13:34:00.378Z,61.80
2018-02-15T13:36:29.296Z,62.10
2018-02-15T13:38:56.850Z,62.10
2018-02-15T13:41:24.575Z,67.30
2018-02-15T13:43:52.863Z,75.20
2018-02-15T13:46:21.193Z,81.80
2018-02-15T13:48:49.225Z,81.70
2018-02-15T13:51:17.891Z,77.20
2018-02-15T13:53:45.520Z,77.20
2018-02-15T13:56:13.137Z,75.40
2018-02-15T13:58:40.894Z,73.40
2018-02-15T14:01:09.232Z,70.90
2018-02-15T14:03:36.911Z,71.00
2018-02-15T14:06:04.661Z,70.40
2018-02-15T14:08:32.522Z,66.60
2018-02-15T14:11:00.152Z,65.30
2018-02-15T14:13:28.518Z,62.60
2018-02-15T14:15:56.557Z,62.50
2018-02-15T14:18:24.122Z,62.50
2018-02-15T14:20:51.726Z,60.50
2018-02-15T14:23:19.337Z,57.80
2018-02-15T14:25:46.966Z,53.90
2018-02-15T14:28:15.408Z,50.60
2018-02-15T14:30:43.005Z,50.50
2018-02-15T14:33:10.654Z,50.60
2018-02-15T14:35:39.438Z,49.30
2018-02-15T14:38:07.815Z,46.00
2018-02-15T14:40:36.895Z,45.90
2018-02-15T14:43:04.850Z,46.00
2018-02-15T14:45:32.517Z,46.70
2018-02-15T14:48:00.094Z,45.80
2018-02-15T14:50:27.666Z,45.50
2018-02-15T14:52:55.290Z,46.00
2018-02-15T14:55:22.882Z,46.60
2018-02-15T14:57:51.603Z,46.20
2018-02-15T15:00:20.254Z,46.40
2018-02-15T15:02:48.465Z,46.40
2018-02-15T15:05:17.143Z,44.70
2018-02-15T15:07:44.812Z,45.20
2018-02-15T15:10:13.197Z,45.90
2018-02-15T15:12:41.180Z,45.80
2018-02-15T15:15:09.555Z,46.30
2018-02-15T15:17:37.150Z,46.30
2018-02-15T15:20:05.735Z,46.10
2018-02-15T15:22:34.028Z,45.70
2018-02-15T15:25:01.702Z,47.70
2018-02-15T15:27:29.307Z,47.40
2018-02-15T15:29:56.942Z,47.30
2018-02-15T15:32:24.517Z,45.50
2018-02-15T15:34:52.262Z,45.30
2018-02-15T15:37:19.889Z,44.80
2018-02-15T15:39:48.234Z,43.90
2018-02-15T15:42:16.433Z,43.90
2018-02-15T15:44:45.070Z,45.10
2018-02-15T15:47:12.718Z,45.00
2018-02-15T15:49:40.318Z,45.20
2018-02-15T15:52:07.990Z,45.20
2018-02-15T15:54:35.643Z,45.10
2018-02-15T15:57:03.245Z,44.50
2018-02-15T15:59:31.822Z,44.30
2018-02-15T16:02:01.186Z,43.80
2018-02-15T16:04:30.427Z,45.60
2018-02-15T16:06:58.452Z,46.40
2018-02-15T16:09:26.670Z,47.10
2018-02-15T16:11:54.404Z,48.50
2018-02-15T16:14:22.909Z,50.60
2018-02-15T16:16:50.605Z,51.30
2018-02-15T16:19:18.199Z,51.00
2018-02-15T16:21:46.446Z,50.30
2018-02-15T16:24:14.872Z,51.00
2018-02-15T16:26:42.478Z,50.50
2018-02-15T16:29:10.749Z,52.00
2018-02-15T16:31:38.442Z,55.30
2018-02-15T16:34:06.119Z,57.50
2018-02-15T16:36:33.856Z,59.10
2018-02-15T16:39:01.526Z,60.40
2018-02-15T16:41:29.375Z,61.40
2018-02-15T16:43:58.099Z,63.50
2018-02-15T16:46:26.451Z,67.90
2018-02-15T16:48:54.795Z,68.60
2018-02-15T16:51:23.167Z,68.60
2018-02-15T16:53:50.856Z,70.20
2018-02-15T16:56:18.524Z,69.80
2018-02-15T16:58:46.800Z,69.40
2018-02-15T17:01:14.555Z,69.10
2018-02-15T17:03:42.120Z,69.60
2018-02-15T17:06:09.700Z,68.80
2018-02-15T17:08:37.397Z,69.50
2018-02-15T17:11:05.771Z,69.90
2018-02-15T17:13:33.355Z,69.90
2018-02-15T17:16:01.870Z,70.80
2018-02-15T17:18:29.742Z,70.60
2018-02-15T17:20:58.353Z,70.80
2018-02-15T17:23:27.073Z,71.00
2018-02-15T17:25:55.466Z,71.80
2018-02-15T17:28:23.006Z,71.70
2018-02-15T17:30:50.598Z,72.00
2018-02-15T17:33:18.191Z,71.30
2018-02-15T17:35:47.306Z,71.40
2018-02-15T17:38:14.878Z,71.00
2018-02-15T17:40:43.249Z,70.50
2018-02-15T17:43:10.937Z,70.50
2018-02-15T17:45:38.575Z,70.70
2018-02-15T17:48:06.182Z,70.50
2018-02-15T17:50:34.530Z,69.70
2018-02-15T17:53:02.894Z,69.70
2018-02-15T17:55:30.628Z,69.60
2018-02-15T17:57:58.208Z,69.80
2018-02-15T18:00:25.941Z,69.40
2018-02-15T18:02:54.272Z,69.60
2018-02-15T18:05:22.352Z,69.50
2018-02-15T18:07:49.902Z,69.60
2018-02-15T18:10:17.552Z,69.70
2018-02-15T18:12:45.190Z,70.10
2018-02-15T18:15:12.802Z,70.70
2018-02-15T18:17:40.383Z,71.40
2018-02-15T18:20:09.743Z,71.80
2018-02-15T18:22:38.461Z,72.20
2018-02-15T18:25:06.507Z,72.80
2018-02-15T18:27:34.094Z,73.30
2018-02-15T18:30:02.363Z,73.70
2018-02-15T18:32:30.235Z,73.60
2018-02-15T18:34:57.842Z,73.30
2018-02-15T18:37:26.218Z,72.80
2018-02-15T18:39:54.864Z,72.60
2018-02-15T18:42:22.782Z,72.70
2018-02-15T18:44:51.323Z,72.20
2018-02-15T18:47:18.925Z,72.20
2018-02-15T18:49:47.479Z,71.90
2018-02-15T18:52:15.373Z,71.90
2018-02-15T18:54:42.980Z,71.70
2018-02-15T18:57:10.655Z,71.80
2018-02-15T18:59:38.251Z,71.60
2018-02-15T19:02:05.891Z,71.60
2018-02-15T19:04:33.586Z,71.50
2018-02-15T19:07:01.217Z,71.80
2018-02-15T19:09:29.129Z,72.20
2018-02-15T19:11:56.754Z,71.80
2018-02-15T19:14:24.345Z,71.30
2018-02-15T19:16:57.888Z,72.00
2018-02-15T19:19:26.228Z,72.70
2018-02-15T19:21:54.605Z,72.70
2018-02-15T19:24:22.197Z,72.50
2018-02-15T19:26:49.783Z,72.50
2018-02-15T19:29:18.174Z,72.70
2018-02-15T19:31:45.753Z,72.70
2018-02-15T19:34:13.347Z,72.70
2018-02-15T19:36:40.922Z,72.80
2018-02-15T19:39:08.556Z,72.70
2018-02-15T19:41:36.123Z,72.60
2018-02-15T19:44:04.803Z,73.60
2018-02-15T19:46:33.832Z,73.80
2018-02-15T19:49:02.328Z,74.10
2018-02-15T19:51:30.600Z,74.60
2018-02-15T19:53:58.587Z,74.10
2018-02-15T19:56:27.542Z,74.40
2018-02-15T19:58:55.969Z,74.40
2018-02-15T20:01:23.786Z,74.90
2018-02-15T20:03:51.376Z,75.10
2018-02-15T20:06:18.982Z,75.20
2018-02-15T20:08:47.628Z,75.20
2018-02-15T20:11:15.217Z,75.30
2018-02-15T20:13:43.458Z,75.40
2018-02-15T20:16:19.090Z,75.50
2018-02-15T20:18:49.262Z,75.40
2018-02-15T20:21:17.591Z,75.40
2018-02-15T20:23:46.518Z,75.50
2018-02-15T20:26:23.127Z,75.10
2018-02-15T20:28:51.050Z,74.80
2018-02-15T20:31:18.652Z,74.50
2018-02-15T20:33:47.280Z,74.10
2018-02-15T20:36:15.872Z,74.00
2018-02-15T20:38:49.468Z,74.20
2018-02-15T20:41:17.824Z,74.40
2018-02-15T20:43:45.438Z,74.30
2018-02-15T20:46:13.687Z,74.30
2018-02-15T20:48:42.772Z,74.30
2018-02-15T20:51:17.109Z,74.70
2018-02-15T20:53:50.349Z,74.70
2018-02-15T20:56:19.305Z,75.00
2018-02-15T20:58:48.049Z,75.40
2018-02-15T21:01:16.449Z,78.90
2018-02-15T21:03:44.932Z,78.70
2018-02-15T21:06:15.016Z,80.60
2018-02-15T21:08:42.938Z,81.60
2018-02-15T21:11:13.065Z,82.70
2018-02-15T21:13:41.464Z,83.20
2018-02-15T21:16:09.330Z,83.40
2018-02-15T21:18:39.180Z,84.10
2018-02-15T21:21:08.503Z,84.80
2018-02-15T21:23:39.393Z,85.00
2018-02-15T21:26:08.966Z,84.70
2018-02-15T21:28:37.113Z,84.80
2018-02-15T21:31:06.424Z,84.70
2018-02-15T21:33:35.881Z,84.70
2018-02-15T21:36:05.012Z,84.80
2018-02-15T21:38:35.267Z,85.30
2018-02-15T21:41:03.479Z,85.20
2018-02-15T21:43:32.003Z,85.10
2018-02-15T21:46:01.521Z,84.90
2018-02-15T21:48:30.604Z,84.70
2018-02-15T21:51:00.105Z,84.60
2018-02-15T21:53:28.640Z,84.60
2018-02-15T21:55:56.787Z,84.50
2018-02-15T21:58:25.336Z,84.50
2018-02-15T22:00:53.389Z,84.50
2018-02-15T22:03:21.104Z,84.40
2018-02-15T22:05:48.769Z,84.60
2018-02-15T22:08:17.270Z,85.20
2018-02-15T22:10:46.503Z,85.80
2018-02-15T22:13:14.154Z,85.70
2018-02-15T22:15:41.743Z,86.10
2018-02-15T22:18:09.747Z,86.50
2018-02-15T22:20:38.155Z,86.50
2018-02-15T22:23:06.493Z,87.20
2018-02-15T22:25:34.190Z,87.10
2018-02-15T22:28:02.611Z,88.00
2018-02-15T22:30:30.749Z,87.40
2018-02-15T22:32:59.152Z,87.20
2018-02-15T22:35:26.973Z,87.10
2018-02-15T22:37:56.062Z,87.30
2018-02-15T22:40:23.690Z,87.30
2018-02-15T22:42:51.344Z,87.10
2018-02-15T22:45:19.726Z,87.00
2018-02-15T22:47:47.297Z,87.00
2018-02-15T22:50:15.111Z,86.70
2018-02-15T22:52:42.864Z,86.70
2018-02-15T22:55:10.507Z,86.70
2018-02-15T22:57:38.120Z,86.90
2018-02-15T23:00:05.725Z,87.00
2018-02-15T23:02:33.642Z,87.10
2018-02-15T23:05:01.286Z,86.60
2018-02-15T23:07:28.894Z,86.30
2018-02-15T23:09:57.784Z,85.40
2018-02-15T23:12:25.564Z,85.60
2018-02-15T23:14:53.239Z,85.60
2018-02-15T23:17:22.315Z,85.50
2018-02-15T23:19:49.873Z,85.40
2018-02-15T23:22:18.181Z,85.30
2018-02-15T23:24:46.571Z,85.50
2018-02-15T23:27:14.142Z,85.70
2018-02-15T23:29:41.794Z,85.80
2018-02-15T23:32:10.314Z,86.00
2018-02-15T23:34:37.968Z,85.60
2018-02-15T23:37:05.530Z,85.80
2018-02-15T23:39:33.120Z,85.30
2018-02-15T23:42:00.692Z,85.20
2018-02-15T23:44:29.183Z,85.10
2018-02-15T23:46:56.751Z,84.80
2018-02-15T23:49:25.105Z,84.10
2018-02-15T23:51:52.665Z,84.50
2018-02-15T23:54:22.674Z,84.30
2018-02-15T23:56:50.262Z,84.30
2018-02-15T23:59:18.103Z,84.20
